Canton, KS (67428)

6:44 PM CDT on July 27, 2016 (GMT -0500)
Lehigh, Kansas | | Change Station

Elev 1503 ft 38.36 °N, 97.28 °W | Updated 10 seconds ago

Clear
Clear
90.5 °F
Feels Like 86 °F
N
2.7
Wind Variable Wind from East
Gusts 4.9 mph

Today
High -- | Low -- °F
--% Chance of Precip.
Yesterday
High -- | Low -- °F
Precip. -- in
Pressure 29.91 in
Visibility 10.0 miles
Clouds Clear
Heat Index 86 °F
Dew Point 27 °F
Humidity 10%
Rainfall 0.00 in
Snow Depth Not available.
6:28 AM 8:43 PM
Last Quarter, 38% visible
METAR KEWK 272256Z AUTO 13006KT 10SM CLR 31/23 A2996 RMK AO2 SLP127 T03110228
Pressure 29.91 in
Visibility 10.0 miles
Clouds Clear
Heat Index 86 °F
Dew Point 27 °F
Humidity 10%
Rainfall 0.00 in
Snow Depth Not available.
6:28 AM 8:43 PM
Last Quarter, 38% visible
METAR KEWK 272256Z AUTO 13006KT 10SM CLR 31/23 A2996 RMK AO2 SLP127 T03110228

10-Day Weather Forecast

Almanac

Astronomy

Jul. 27, 2016 Rise Set
Actual Time
Civil Twilight
Nautical Twilight
Astronomical Twilight
Moon
Length of Visible Light
Length of Day
Tomorrow will be .
, % of the Moon is Illuminated

Today's Extremes

State Highs State Lows

Community

WunderPhotos

Upload Photos

1,927,958 photos uploaded!

WunderBlog® & News

Nearby

Air Quality

  Air Quality AQ Index Pollutant
Not available.

Snow Depth

Station Depth Elevation

Earthquake Activity

City Distance Mag. Time & Date
Minimum magnitude displayed is 2.5.

Coastal Water Temperatures

Place Temperature

Stations

Nearby Weather Stations

Station Location Temp. Windchill Dew Point Humidity Wind Precip. Elev Updated Type
                   

Watches & Warnings

There are currently no watches in effect.